createdAt,value
2022-12-19T00:01:26.333Z,15.10
2022-12-19T00:03:59.426Z,16.50
2022-12-19T00:06:34.176Z,14.50
2022-12-19T00:09:04.954Z,16.60
2022-12-19T00:11:36.248Z,15.85
2022-12-19T00:14:06.868Z,17.27
2022-12-19T00:16:37.409Z,16.60
2022-12-19T00:19:08.326Z,18.50
2022-12-19T00:21:42.043Z,16.90
2022-12-19T00:24:20.776Z,17.60
2022-12-19T00:26:52.791Z,16.60
2022-12-19T00:29:23.434Z,17.48
2022-12-19T00:31:55.706Z,18.05
2022-12-19T00:34:26.484Z,17.27
2022-12-19T00:36:59.594Z,16.40
2022-12-19T00:39:32.284Z,16.33
2022-12-19T00:42:02.890Z,17.00
2022-12-19T00:44:33.550Z,16.13
2022-12-19T00:47:04.435Z,18.00
2022-12-19T00:49:34.966Z,17.48
2022-12-19T00:52:08.750Z,17.98
2022-12-19T00:54:39.320Z,17.65
2022-12-19T00:57:10.063Z,18.45
2022-12-19T00:59:40.975Z,18.83
2022-12-19T01:02:11.582Z,17.95
2022-12-19T01:04:42.297Z,16.73
2022-12-19T01:07:18.883Z,17.55
2022-12-19T01:09:49.341Z,19.25
2022-12-19T01:12:34.113Z,17.40
2022-12-19T01:15:05.369Z,18.13
2022-12-19T01:17:44.696Z,16.40
2022-12-19T01:20:21.398Z,17.33
2022-12-19T01:23:03.492Z,17.70
2022-12-19T01:25:34.240Z,17.35
2022-12-19T01:28:07.843Z,17.80
2022-12-19T01:30:42.645Z,15.50
2022-12-19T01:33:15.443Z,16.50
2022-12-19T01:35:46.392Z,16.75
2022-12-19T01:38:20.513Z,16.23
2022-12-19T01:40:55.078Z,15.82
2022-12-19T01:43:26.296Z,16.92
2022-12-19T01:45:59.916Z,16.45
2022-12-19T01:48:35.886Z,16.48
2022-12-19T01:51:10.761Z,16.60
2022-12-19T01:53:48.604Z,15.23
2022-12-19T01:56:23.182Z,16.02
2022-12-19T01:59:06.419Z,16.02
2022-12-19T02:01:51.610Z,14.88
2022-12-19T02:04:28.968Z,16.23
2022-12-19T02:07:15.222Z,15.52
2022-12-19T02:09:57.181Z,16.55
2022-12-19T02:12:39.809Z,15.07
2022-12-19T02:15:13.858Z,16.63
2022-12-19T02:17:59.712Z,16.52
2022-12-19T02:20:54.385Z,17.15
2022-12-19T02:24:00.356Z,15.80
2022-12-19T02:26:51.323Z,17.20
2022-12-19T02:29:44.455Z,15.65
2022-12-19T02:32:23.937Z,16.35
2022-12-19T02:35:02.068Z,16.15
2022-12-19T02:37:37.305Z,15.20
2022-12-19T02:40:18.164Z,15.40
2022-12-19T02:42:57.572Z,15.27
2022-12-19T02:45:29.841Z,14.68
2022-12-19T02:48:09.013Z,15.10
2022-12-19T02:50:42.358Z,14.88
2022-12-19T02:53:16.978Z,15.40
2022-12-19T02:55:57.701Z,16.42
2022-12-19T02:58:53.044Z,15.38
2022-12-19T03:01:42.446Z,15.73
2022-12-19T03:04:24.557Z,17.30
2022-12-19T03:06:59.885Z,17.17
2022-12-19T03:09:43.826Z,15.63
2022-12-19T03:12:22.522Z,15.57
2022-12-19T03:14:56.589Z,16.17
2022-12-19T03:17:28.243Z,16.25
2022-12-19T03:20:01.371Z,17.10
2022-12-19T03:22:34.021Z,16.42
2022-12-19T03:25:04.915Z,16.65
2022-12-19T03:27:40.428Z,16.85
2022-12-19T03:30:16.252Z,16.17
2022-12-19T03:32:50.019Z,16.92
2022-12-19T03:35:26.061Z,17.85
2022-12-19T03:38:00.616Z,16.52
2022-12-19T03:40:33.367Z,15.60
2022-12-19T03:43:12.636Z,15.95
2022-12-19T03:45:54.718Z,16.73
2022-12-19T03:48:30.096Z,16.20
2022-12-19T03:51:12.228Z,17.17
2022-12-19T03:53:51.866Z,16.55
2022-12-19T03:56:33.534Z,17.02
2022-12-19T03:59:10.120Z,15.07
2022-12-19T04:01:43.538Z,15.68
2022-12-19T04:04:15.803Z,16.65
2022-12-19T04:06:50.205Z,16.88
2022-12-19T04:09:23.652Z,17.65
2022-12-19T04:12:00.492Z,16.45
2022-12-19T04:14:33.836Z,17.27
2022-12-19T04:17:16.207Z,16.15
2022-12-19T04:19:54.370Z,16.73
2022-12-19T04:22:35.336Z,17.75
2022-12-19T04:25:08.354Z,17.67
2022-12-19T04:27:42.110Z,17.90
2022-12-19T04:30:18.183Z,24.92
2022-12-19T04:32:50.057Z,18.50
2022-12-19T04:35:20.821Z,18.60
2022-12-19T04:37:55.325Z,19.17
2022-12-19T04:40:25.973Z,18.10
2022-12-19T04:42:56.492Z,19.20
2022-12-19T04:45:30.078Z,18.40
2022-12-19T04:48:03.724Z,18.45
2022-12-19T04:50:35.862Z,18.33
2022-12-19T04:53:10.356Z,18.48
2022-12-19T04:55:42.621Z,19.35
2022-12-19T04:58:16.304Z,18.35
2022-12-19T05:00:49.483Z,19.63
2022-12-19T05:03:20.101Z,18.30
2022-12-19T05:05:50.643Z,18.30
2022-12-19T05:08:23.861Z,19.75
2022-12-19T05:10:54.443Z,18.58
2022-12-19T05:13:25.048Z,18.80
2022-12-19T05:15:59.628Z,18.38
2022-12-19T05:18:30.927Z,17.87
2022-12-19T05:21:01.652Z,19.30
2022-12-19T05:23:35.074Z,19.45
2022-12-19T05:26:06.669Z,18.85
2022-12-19T05:28:38.113Z,19.67
2022-12-19T05:31:11.384Z,21.33
2022-12-19T05:33:43.209Z,19.92
2022-12-19T05:36:18.170Z,18.98
2022-12-19T05:38:51.458Z,18.35
2022-12-19T05:41:23.990Z,19.20
2022-12-19T05:43:56.826Z,17.70
2022-12-19T05:46:28.171Z,19.23
2022-12-19T05:48:59.531Z,20.30
2022-12-19T05:51:31.119Z,19.77
2022-12-19T05:54:06.250Z,20.58
2022-12-19T05:56:36.715Z,16.67
2022-12-19T05:59:07.231Z,19.38
2022-12-19T06:01:37.851Z,20.00
2022-12-19T06:04:08.938Z,20.15
2022-12-19T06:06:39.499Z,19.00
2022-12-19T06:09:12.864Z,19.17
2022-12-19T06:11:43.339Z,20.13
2022-12-19T06:14:13.997Z,19.38
2022-12-19T06:16:44.594Z,17.92
2022-12-19T06:19:15.236Z,21.15
2022-12-19T06:21:48.546Z,20.20
2022-12-19T06:24:21.907Z,20.13
2022-12-19T06:26:52.335Z,26.33
2022-12-19T06:29:23.081Z,21.45
2022-12-19T06:31:53.851Z,18.73
2022-12-19T06:34:55.116Z,20.05
2022-12-19T06:37:15.701Z,17.65
2022-12-19T06:39:48.899Z,20.40
2022-12-19T06:42:25.873Z,20.20
2022-12-19T06:44:57.645Z,18.60
2022-12-19T06:47:28.454Z,20.70
2022-12-19T06:49:58.986Z,21.00
2022-12-19T06:52:29.470Z,20.35
2022-12-19T06:55:02.983Z,19.42
2022-12-19T06:57:34.015Z,19.90
2022-12-19T07:00:04.740Z,22.40
2022-12-19T07:02:36.049Z,20.05
2022-12-19T07:05:10.065Z,21.10
2022-12-19T07:07:41.485Z,21.58
2022-12-19T07:10:15.884Z,22.55
2022-12-19T07:12:46.375Z,22.73
2022-12-19T07:15:17.176Z,21.77
2022-12-19T07:17:47.667Z,21.42
2022-12-19T07:20:19.694Z,21.65
2022-12-19T07:22:51.387Z,21.35
2022-12-19T07:25:24.761Z,22.33
2022-12-19T07:27:55.859Z,22.67
2022-12-19T07:30:26.461Z,23.75
2022-12-19T07:32:57.435Z,23.25
2022-12-19T07:35:28.173Z,23.85
2022-12-19T07:38:04.024Z,22.48
2022-12-19T07:40:38.269Z,23.17
2022-12-19T07:43:09.967Z,23.13
2022-12-19T07:45:41.917Z,23.30
2022-12-19T07:48:12.547Z,23.40
2022-12-19T07:50:46.176Z,22.83
2022-12-19T07:53:16.831Z,25.00
2022-12-19T07:55:53.630Z,22.33
2022-12-19T07:58:24.139Z,22.08
2022-12-19T08:00:58.974Z,23.17
2022-12-19T08:03:29.796Z,23.60
2022-12-19T08:06:03.482Z,23.20
2022-12-19T08:08:34.818Z,22.10
2022-12-19T08:11:17.080Z,23.25
2022-12-19T08:13:47.972Z,23.38
2022-12-19T08:16:18.642Z,25.08
2022-12-19T08:18:49.864Z,23.35
2022-12-19T08:21:20.575Z,24.15
2022-12-19T08:23:51.176Z,23.85
2022-12-19T08:26:25.613Z,23.00
2022-12-19T08:28:57.265Z,22.88
2022-12-19T08:31:30.285Z,24.52
2022-12-19T08:34:01.076Z,23.98
2022-12-19T08:36:31.727Z,23.98
2022-12-19T08:39:02.289Z,24.45
2022-12-19T08:41:35.641Z,25.35
2022-12-19T08:44:06.349Z,25.42
2022-12-19T08:46:36.980Z,24.15
2022-12-19T08:49:07.489Z,26.75
2022-12-19T08:51:38.043Z,25.98
2022-12-19T08:54:11.639Z,22.38
2022-12-19T08:56:47.329Z,24.30
2022-12-19T08:59:25.048Z,24.92
2022-12-19T09:02:01.679Z,22.95
2022-12-19T09:05:57.617Z,24.88
2022-12-19T09:07:23.259Z,24.55
2022-12-19T09:09:53.937Z,25.38
2022-12-19T09:12:27.232Z,19.38
2022-12-19T09:14:57.774Z,17.75
2022-12-19T09:17:28.387Z,18.58
2022-12-19T09:19:58.853Z,21.65
2022-12-19T09:22:29.787Z,21.67
2022-12-19T09:25:00.416Z,21.02
2022-12-19T09:28:01.324Z,22.52
2022-12-19T09:30:24.099Z,19.70
2022-12-19T09:32:54.642Z,18.38
2022-12-19T09:35:30.030Z,20.48
2022-12-19T09:40:35.015Z,15.40
2022-12-19T09:43:14.977Z,17.45
2022-12-19T09:45:58.831Z,14.80
2022-12-19T09:48:29.334Z,14.25
2022-12-19T09:51:10.148Z,13.85
2022-12-19T09:53:55.483Z,15.50
2022-12-19T09:56:29.430Z,14.95
2022-12-19T09:59:09.033Z,10.93
2022-12-19T10:01:48.298Z,14.52
2022-12-19T10:04:20.633Z,13.80
2022-12-19T10:07:11.197Z,14.10
2022-12-19T10:12:35.005Z,12.68
2022-12-19T10:12:52.889Z,12.43
2022-12-19T10:15:35.817Z,12.77
2022-12-19T10:18:29.530Z,13.02
2022-12-19T10:21:09.111Z,13.77
2022-12-19T10:23:57.487Z,12.63
2022-12-19T10:26:37.393Z,12.25
2022-12-19T10:29:26.344Z,13.23
2022-12-19T10:32:06.672Z,14.82
2022-12-19T10:34:41.571Z,13.13
2022-12-19T10:37:27.052Z,13.13
2022-12-19T10:40:28.035Z,12.38
2022-12-19T10:43:10.731Z,12.32
2022-12-19T10:45:48.265Z,13.70
2022-12-19T10:48:27.709Z,14.30
2022-12-19T10:51:06.829Z,13.20
2022-12-19T10:53:37.635Z,15.18
2022-12-19T10:56:17.048Z,14.40
2022-12-19T10:58:47.572Z,13.90
2022-12-19T11:01:23.898Z,14.70
2022-12-19T11:04:18.832Z,14.27
2022-12-19T11:06:54.453Z,14.60
2022-12-19T11:09:31.303Z,14.23
2022-12-19T11:16:44.098Z,13.90
2022-12-19T11:19:27.523Z,14.48
2022-12-19T11:26:32.508Z,13.05
2022-12-19T11:29:41.740Z,14.32
2022-12-19T11:29:44.792Z,12.70
2022-12-19T11:30:36.288Z,14.32
2022-12-19T11:32:44.202Z,14.95
2022-12-19T11:35:24.658Z,14.20
2022-12-19T11:38:00.627Z,14.27
2022-12-19T11:40:37.385Z,15.02
2022-12-19T11:46:13.875Z,15.45
2022-12-19T11:48:52.929Z,16.25
2022-12-19T11:51:31.158Z,15.27
2022-12-19T11:54:15.272Z,15.13
2022-12-19T11:56:46.068Z,15.82
2022-12-19T11:59:21.473Z,16.17
2022-12-19T12:05:07.208Z,14.63
2022-12-19T12:08:55.213Z,12.83
2022-12-19T12:16:39.932Z,15.77
2022-12-19T12:22:32.925Z,17.80
2022-12-19T12:31:11.912Z,17.77
2022-12-19T12:31:20.197Z,15.63
2022-12-19T12:31:26.890Z,17.27
2022-12-19T12:31:45.375Z,19.40
2022-12-19T12:31:46.048Z,16.98
2022-12-19T12:35:46.741Z,17.67
2022-12-19T12:36:53.064Z,18.50
2022-12-19T12:38:21.662Z,19.98
2022-12-19T12:41:21.106Z,18.02
2022-12-19T12:44:10.232Z,19.38
2022-12-19T12:46:43.510Z,19.40
2022-12-19T12:49:34.828Z,16.25
2022-12-19T12:52:08.048Z,14.75
2022-12-19T12:54:41.865Z,14.82
2022-12-19T12:57:23.835Z,15.25
2022-12-19T13:00:20.961Z,11.15
2022-12-19T13:02:56.568Z,9.50
2022-12-19T13:05:38.536Z,10.38
2022-12-19T13:08:34.429Z,9.98
2022-12-19T13:11:07.165Z,7.82
2022-12-19T13:13:58.311Z,11.82
2022-12-19T13:16:54.197Z,9.25
2022-12-19T13:19:28.787Z,10.18
2022-12-19T13:22:22.235Z,9.70
2022-12-19T13:24:54.634Z,11.13
2022-12-19T13:27:43.140Z,10.45
2022-12-19T13:30:21.750Z,10.27
2022-12-19T13:33:19.192Z,10.98
2022-12-19T13:39:16.204Z,10.93
2022-12-19T13:39:50.860Z,10.57
2022-12-19T13:41:57.970Z,10.10
2022-12-19T13:44:29.599Z,10.68
2022-12-19T13:47:02.776Z,11.20
2022-12-19T13:49:36.053Z,11.18
2022-12-19T13:52:08.245Z,9.63
2022-12-19T13:54:47.979Z,9.70
2022-12-19T13:57:26.680Z,10.52
2022-12-19T14:00:01.388Z,9.90
2022-12-19T14:02:46.236Z,8.70
2022-12-19T14:06:05.771Z,8.07
2022-12-19T14:08:22.686Z,9.25
2022-12-19T14:11:41.243Z,7.45
2022-12-19T14:14:10.329Z,7.72
2022-12-19T14:16:46.974Z,8.35
2022-12-19T14:19:26.261Z,9.75
2022-12-19T14:22:07.403Z,9.27
2022-12-19T14:24:43.389Z,11.48
2022-12-19T14:28:18.859Z,11.32
2022-12-19T14:30:30.970Z,8.88
2022-12-19T14:33:46.085Z,10.70
2022-12-19T14:36:11.292Z,11.48
2022-12-19T14:39:24.397Z,8.55
2022-12-19T14:42:00.881Z,12.18
2022-12-19T14:52:08.041Z,11.77
2022-12-19T14:54:14.923Z,11.43
2022-12-19T14:54:20.957Z,12.23
2022-12-19T14:54:31.033Z,12.10
2022-12-19T14:59:33.094Z,11.93
2022-12-19T15:02:13.098Z,12.65
2022-12-19T15:04:54.968Z,13.73
2022-12-19T15:07:31.845Z,14.02
2022-12-19T15:11:07.709Z,15.10
2022-12-19T15:14:52.225Z,14.43
2022-12-19T15:16:08.448Z,16.02
2022-12-19T15:18:43.247Z,13.00
2022-12-19T15:21:15.897Z,13.90
2022-12-19T15:23:47.856Z,13.40
2022-12-19T15:26:23.011Z,13.18
2022-12-19T15:28:55.876Z,13.65
2022-12-19T15:31:32.439Z,12.70
2022-12-19T15:36:54.543Z,13.98
2022-12-19T15:39:26.881Z,15.32
2022-12-19T15:42:02.539Z,13.30
2022-12-19T15:44:35.995Z,12.73
2022-12-19T15:47:09.812Z,11.93
2022-12-19T15:49:40.508Z,12.85
2022-12-19T15:52:19.705Z,13.52
2022-12-19T15:54:51.265Z,13.93
2022-12-19T15:57:32.481Z,13.77
2022-12-19T16:00:05.279Z,13.95
2022-12-19T16:03:21.296Z,14.68
2022-12-19T16:05:29.634Z,12.93
2022-12-19T16:08:00.920Z,12.98
2022-12-19T16:10:32.292Z,12.00
2022-12-19T16:13:05.719Z,10.65
2022-12-19T16:18:57.845Z,11.20
2022-12-19T16:24:08.173Z,14.93
2022-12-19T16:26:43.301Z,18.15
2022-12-19T16:29:22.822Z,21.98
2022-12-19T16:31:55.317Z,24.73
2022-12-19T16:34:27.641Z,21.88
2022-12-19T16:36:58.457Z,20.27
2022-12-19T16:39:29.384Z,18.33
2022-12-19T16:42:00.194Z,21.13
2022-12-19T16:44:36.795Z,23.02
2022-12-19T16:47:07.754Z,17.27
2022-12-19T16:49:38.426Z,16.50
2022-12-19T16:52:09.540Z,17.73
2022-12-19T16:54:41.334Z,18.60
2022-12-19T16:57:22.019Z,22.88
2022-12-19T16:59:55.983Z,26.88
2022-12-19T17:02:42.576Z,24.40
2022-12-19T17:05:21.027Z,21.38
2022-12-19T17:07:54.048Z,18.80
2022-12-19T17:10:28.585Z,19.00
2022-12-19T17:13:02.105Z,18.83
2022-12-19T17:15:39.241Z,24.05
2022-12-19T17:18:16.949Z,27.10
2022-12-19T17:20:48.602Z,28.05
2022-12-19T17:23:21.356Z,27.48
2022-12-19T17:25:52.488Z,23.92
2022-12-19T17:28:23.398Z,24.42
2022-12-19T17:31:00.211Z,28.65
2022-12-19T17:33:36.857Z,30.52
2022-12-19T17:36:09.223Z,31.48
2022-12-19T17:38:39.980Z,33.50
2022-12-19T17:41:16.952Z,34.97
2022-12-19T17:43:47.909Z,33.47
2022-12-19T17:46:26.469Z,31.48
2022-12-19T17:48:57.542Z,30.20
2022-12-19T17:51:28.077Z,31.73
2022-12-19T17:53:58.792Z,30.75
2022-12-19T17:56:29.349Z,32.92
2022-12-19T17:59:00.035Z,34.88
2022-12-19T18:01:35.661Z,35.55
2022-12-19T18:04:06.600Z,36.20
2022-12-19T18:06:38.396Z,34.17
2022-12-19T18:09:16.572Z,36.00
2022-12-19T18:11:53.241Z,35.92
2022-12-19T18:14:34.932Z,33.42
2022-12-19T18:17:25.133Z,30.98
2022-12-19T18:19:56.010Z,34.55
2022-12-19T18:22:26.556Z,36.10
2022-12-19T18:24:57.812Z,37.53
2022-12-19T18:27:28.553Z,37.63
2022-12-19T18:29:59.135Z,39.50
2022-12-19T18:32:32.319Z,39.28
2022-12-19T18:35:02.920Z,39.72
2022-12-19T18:37:34.348Z,42.35
2022-12-19T18:40:05.184Z,33.90
2022-12-19T18:42:35.772Z,42.80
2022-12-19T18:45:06.647Z,32.00
2022-12-19T18:47:40.052Z,37.38
2022-12-19T18:50:18.676Z,38.65
2022-12-19T18:52:49.685Z,38.92
2022-12-19T18:55:21.981Z,41.08
2022-12-19T18:57:53.280Z,42.75
2022-12-19T19:00:25.970Z,40.80
2022-12-19T19:03:04.221Z,39.08
2022-12-19T19:05:38.298Z,34.35
2022-12-19T19:08:17.850Z,35.65
2022-12-19T19:10:54.862Z,40.40
2022-12-19T19:13:29.147Z,37.17
2022-12-19T19:16:02.711Z,36.78
2022-12-19T19:18:40.715Z,32.42
2022-12-19T19:21:14.970Z,34.15
2022-12-19T19:23:51.060Z,32.63
2022-12-19T19:26:21.726Z,29.08
2022-12-19T19:28:52.914Z,29.10
2022-12-19T19:31:26.690Z,30.65
2022-12-19T19:34:03.884Z,28.52
2022-12-19T19:36:38.240Z,26.17
2022-12-19T19:39:09.182Z,27.17
2022-12-19T19:41:39.880Z,26.40
2022-12-19T19:44:10.676Z,24.10
2022-12-19T19:46:41.944Z,25.75
2022-12-19T19:49:15.891Z,24.88
2022-12-19T19:51:46.697Z,26.20
2022-12-19T19:54:18.257Z,27.17
2022-12-19T19:56:49.328Z,30.58
2022-12-19T19:59:21.554Z,31.05
2022-12-19T20:01:54.615Z,31.48
2022-12-19T20:04:29.960Z,30.58
2022-12-19T20:07:00.877Z,31.38
2022-12-19T20:09:32.646Z,29.40
2022-12-19T20:12:03.335Z,37.63
2022-12-19T20:14:34.071Z,41.10
2022-12-19T20:17:04.646Z,36.30
2022-12-19T20:19:37.903Z,34.25
2022-12-19T20:22:08.640Z,36.17
2022-12-19T20:24:39.315Z,34.33
2022-12-19T20:27:10.078Z,33.03
2022-12-19T20:29:41.066Z,27.30
2022-12-19T20:32:11.696Z,29.35
2022-12-19T20:34:44.933Z,28.42
2022-12-19T20:37:15.657Z,28.35
2022-12-19T20:39:46.234Z,30.08
2022-12-19T20:42:16.744Z,31.55
2022-12-19T20:44:47.425Z,32.42
2022-12-19T20:47:18.038Z,31.65
2022-12-19T20:49:51.206Z,31.65
2022-12-19T20:52:21.992Z,28.92
2022-12-19T20:54:52.625Z,28.25
2022-12-19T20:57:23.404Z,27.83
2022-12-19T20:59:54.666Z,25.50
2022-12-19T21:02:25.693Z,24.55
2022-12-19T21:04:59.245Z,22.80
2022-12-19T21:07:30.117Z,24.98
2022-12-19T21:10:00.904Z,25.33
2022-12-19T21:12:31.479Z,25.90
2022-12-19T21:15:02.366Z,28.02
2022-12-19T21:17:34.121Z,28.88
2022-12-19T21:20:08.542Z,32.47
2022-12-19T21:22:39.585Z,33.08
2022-12-19T21:25:11.623Z,31.33
2022-12-19T21:27:43.639Z,26.65
2022-12-19T21:30:14.817Z,25.45
2022-12-19T21:32:45.436Z,22.88
2022-12-19T21:35:18.772Z,25.20
2022-12-19T21:37:51.798Z,22.25
2022-12-19T21:40:22.912Z,22.35
2022-12-19T21:42:53.417Z,21.83
2022-12-19T21:45:25.193Z,23.63
2022-12-19T21:47:55.727Z,24.98
2022-12-19T21:50:28.948Z,22.65
2022-12-19T21:52:59.534Z,23.85
2022-12-19T21:55:30.623Z,23.38
2022-12-19T21:58:03.536Z,23.95
2022-12-19T22:03:31.800Z,19.02
2022-12-19T22:06:05.028Z,21.73
2022-12-19T22:08:35.604Z,19.13
2022-12-19T22:11:06.553Z,18.80
2022-12-19T22:13:37.135Z,18.83
2022-12-19T22:16:08.653Z,17.42
2022-12-19T22:18:39.483Z,16.88
2022-12-19T22:21:15.422Z,17.63
2022-12-19T22:23:46.065Z,16.80
2022-12-19T22:26:18.202Z,16.40
2022-12-19T22:28:51.256Z,16.73
2022-12-19T22:31:23.938Z,17.45
2022-12-19T22:33:57.748Z,18.70
2022-12-19T22:36:32.946Z,16.70
2022-12-19T22:39:05.356Z,16.48
2022-12-19T22:41:37.101Z,16.58
2022-12-19T22:44:08.649Z,17.88
2022-12-19T22:46:41.045Z,16.67
2022-12-19T22:49:11.936Z,17.20
2022-12-19T22:51:45.532Z,18.40
2022-12-19T22:54:16.852Z,17.90
2022-12-19T22:56:47.464Z,15.65
2022-12-19T22:59:18.030Z,13.10
2022-12-19T23:01:49.138Z,17.08
2022-12-19T23:04:20.602Z,16.30
2022-12-19T23:06:54.348Z,17.80
2022-12-19T23:09:24.918Z,18.60
2022-12-19T23:11:55.726Z,14.95
2022-12-19T23:14:26.292Z,15.73
2022-12-19T23:16:57.107Z,15.90
2022-12-19T23:19:27.612Z,13.32
2022-12-19T23:22:00.854Z,13.93
2022-12-19T23:24:31.578Z,15.98
2022-12-19T23:27:02.119Z,16.73
2022-12-19T23:29:32.623Z,17.05
2022-12-19T23:32:03.476Z,16.80
2022-12-19T23:34:34.137Z,16.00
2022-12-19T23:37:11.920Z,16.27
2022-12-19T23:39:43.110Z,17.73
2022-12-19T23:42:13.890Z,16.35
2022-12-19T23:44:44.729Z,17.05
2022-12-19T23:47:15.532Z,14.93
2022-12-19T23:49:46.103Z,16.55
2022-12-19T23:52:19.530Z,17.23
2022-12-19T23:54:50.155Z,15.90
2022-12-19T23:57:20.835Z,16.80
2022-12-19T23:59:51.571Z,16.45
